Detall de PIREP

Printer-friendly versionPDF version

[2008/12/10 19:07:00]
Flight IATA:CT3203
Pilot Number:011
Company ICAO:CAT
Aircraft Type:F28/A
PAX:85
Departing Airport: LGAV
Destination Airport: LEPA
Alternate Airport:LEBL
Online: VATSIM
Route:RILIN UN604 RUTOM UM601 VERSO UL129 LUNIK
Flight Level:FL310
No Slew and time accel
No pause
Crash detect
Detect pilot in Cockpit between each 30 and 45 minutes
19:07 Zero fuel Weight: 55837 Lbs, Fuel Weight: 17118 Lbs
19:07 VATSIM:LGAV 101820Z 30003KT 9999 FEW025 06/01 Q1027 NOSIG
19:07 VATSIM:LEPA 101830Z 31010KT 290V350 9999 FEW020 BKN050 06/03 Q1010 TEMPO SHRA
19:09 Parking Brakes off
19:25 Take-off
19:25 Take off Weight: 72236 Lbs
19:25 Wind: 093 @ 001 Knots Heading: 037
19:25 POS N37 56 10 E023 55 58
19:25 Flaps:2 at 173 Knots
19:25 Gear Up: 179 Knots
19:26 Flaps:1 at 240 Knots
19:26 Flaps:0 at 244 Knots
19:40 Wind:115@002 Knots Heading: 271 Ground Spe
ed: 383 Knots Altitude 22444 ft
19:46 TOC
19:46 Fuel Weight: 13719 Lb
19:55 Wind:127@055 Knots Heading: 278 Ground Speed: 492 Knots Altitude 31253 ft
20:10 Wind:144@041 Knots Heading: 284 Ground Speed: 476 Knots Altitude 31125 ft
20:25 Wind:048@021 Knots Heading: 279 Ground Speed: 460 Knots Altitude 31033 ft
21:38 TOD
21:38 Fuel Weight: 5766 Lb
21:40 Wind:339@026 Knots Heading: 260 Ground Speed: 411 Knots Altitude 26555 ft
21:55 Wind:008@015 Knots Heading: 178 Ground Speed: 280 Knots Altitude 5013 ft
21:59 Flaps:1 at 225 Knots
22:00 Flaps:2 at 209 Knots
22:00 Flaps:3 at 195 Knots
22:01 Flaps:4 at 168 Knots
22:01 Gear Down: 166 Knots
22:01 Flaps:5 at 151 Knots
22:05 TouchDown:Rate -90 ft/min Speed: 111 Knots
22:05 VATSIM:LEPA 102130Z 03005KT 350V070 9999 FEW020 SCT040 06/04 Q1011 NOSIG
22:05 Land
22:05 Wind:023@005 Knots
22:05 Heading: 237
22:05
Flight Duration: 02:40
22:05 Landing Weight: 60348 Lbs
22:05 POS N39 32 46 E002 44 31
22:08 Parking brakes on
22:08 Block to Block Duration: 02:59
22:08 Final Fuel: 4281 Lbls
22:08 Spent Fuel: 12837 Lbls
22:08 Flight Length: 135 NM
22:08 TOD Land Length: 38 NM

Exportar CSV

Powered by Drupal - Modified by Danger4k